Time;durP1;ratioP1;P1;durP2;ratioP2;P2;SDS_P1;SDS_P2;PMS_P1;PMS_P2;Temp;Humidity;BMP_temperature;BMP_pressure;BME280_temperature;BME280_humidity;BME280_pressure;Samples;Min_cycle;Max_cycle;Signal;HPM_P1;HPM_P2
2021/07/02 00:00:53;;;;;;;17.02;6.40;;;;;;;20.95;52.80;101140.25;3570720;40;20056;-78
2021/07/02 00:03:20;;;;;;;24.20;8.85;;;;;;;20.84;53.49;101134.72;3561147;40;20379;-78
2021/07/02 00:05:49;;;;;;;13.68;6.10;;;;;;;20.89;53.77;101143.25;3577900;40;20105;-78
2021/07/02 00:08:17;;;;;;;20.15;8.77;;;;;;;20.75;53.20;101135.25;3572699;40;20061;-78
2021/07/02 00:10:43;;;;;;;;;;;;;;;20.78;50.88;101137.69;3556896;40;20088;-78
2021/07/02 00:13:11;;;;;;;16.88;6.38;;;;;;;20.70;53.00;101137.31;3574223;40;19959;-78
2021/07/02 00:15:42;;;;;;;14.18;6.07;;;;;;;20.63;53.32;101135.94;3565543;40;20061;-78
2021/07/02 00:18:09;;;;;;;14.35;6.43;;;;;;;20.52;54.00;101125.09;3570219;40;20111;-79
2021/07/02 00:20:43;;;;;;;9.77;4.35;;;;;;;20.47;53.33;101131.50;3573525;40;20064;-79
2021/07/02 00:23:11;;;;;;;15.75;6.10;;;;;;;20.41;55.02;101131.84;3562457;40;20069;-78
2021/07/02 00:25:40;;;;;;;12.43;5.55;;;;;;;20.26;54.07;101122.09;3571683;40;20631;-78
2021/07/02 00:28:07;;;;;;;19.27;7.25;;;;;;;20.28;55.00;101136.13;3565027;40;20145;-78
2021/07/02 00:30:35;;;;;;;18.58;8.50;;;;;;;20.22;55.92;101141.75;3576547;40;20114;-78
2021/07/02 00:33:03;;;;;;;12.70;4.63;;;;;;;20.19;55.40;101131.34;3583150;40;20067;-78
2021/07/02 00:35:29;;;;;;;10.93;4.63;;;;;;;20.14;55.99;101122.78;3569887;40;20076;-78
2021/07/02 00:37:56;;;;;;;13.93;5.60;;;;;;;20.10;56.26;101113.28;3575935;40;20072;-79
2021/07/02 00:40:23;;;;;;;10.10;3.97;;;;;;;20.11;54.89;101122.94;3583684;40;20061;-78
2021/07/02 00:42:50;;;;;;;15.33;5.77;;;;;;;20.06;55.92;101120.56;3568411;40;20730;-78
2021/07/02 00:45:18;;;;;;;10.07;4.40;;;;;;;20.04;55.86;101124.25;3564126;40;20252;-78
2021/07/02 00:47:46;;;;;;;9.25;4.00;;;;;;;19.96;55.56;101124.66;3575579;40;20140;-78
2021/07/02 00:50:15;;;;;;;10.63;4.50;;;;;;;19.90;55.32;101125.00;3559933;40;20060;-79
2021/07/02 00:52:42;;;;;;;11.35;4.72;;;;;;;19.78;56.51;101115.94;3577749;40;20784;-78
2021/07/02 00:55:10;;;;;;;9.95;3.92;;;;;;;19.81;55.70;101130.78;3571704;40;20052;-78
2021/07/02 00:57:39;;;;;;;10.30;4.30;;;;;;;19.69;55.41;101116.44;3570290;40;20413;-78
2021/07/02 01:00:09;;;;;;;10.40;5.10;;;;;;;19.59;55.96;101104.56;3580626;40;20056;-78
2021/07/02 01:02:40;;;;;;;9.98;4.18;;;;;;;19.64;55.42;101118.47;3561054;40;20078;-78
2021/07/02 01:05:09;;;;;;;7.90;3.50;;;;;;;19.60;56.17;101115.13;3568265;40;20056;-78
2021/07/02 01:07:40;;;;;;;8.25;3.67;;;;;;;19.57;55.91;101117.06;3576801;40;20072;-78
2021/07/02 01:10:10;;;;;;;9.13;3.72;;;;;;;19.49;56.63;101119.25;3580443;40;20049;-78
2021/07/02 01:12:40;;;;;;;11.15;4.57;;;;;;;19.44;55.57;101120.34;3571477;40;20042;-78
2021/07/02 01:15:23;;;;;;;10.10;4.82;;;;;;;19.38;54.65;101110.09;3565847;40;20061;-79
2021/07/02 01:17:58;;;;;;;6.78;3.10;;;;;;;19.33;55.79;101108.63;3566004;40;20053;-79
2021/07/02 01:20:27;;;;;;;9.27;3.95;;;;;;;19.21;56.40;101102.19;3573785;40;20108;-78
2021/07/02 01:22:59;;;;;;;9.73;4.10;;;;;;;19.22;55.53;101110.97;3559859;40;20068;-78
2021/07/02 01:25:32;;;;;;;10.02;4.07;;;;;;;19.12;55.91;101100.00;3571372;40;20207;-78
2021/07/02 01:28:04;;;;;;;10.38;5.00;;;;;;;19.05;56.46;101093.31;3559516;40;20894;-78
2021/07/02 01:30:33;;;;;;;9.35;3.90;;;;;;;18.92;57.30;101087.81;3559085;40;20396;-78
2021/07/02 01:33:13;;;;;;;9.35;3.80;;;;;;;18.89;55.74;101098.53;3561194;40;20081;-78
2021/07/02 01:35:42;;;;;;;9.38;4.05;;;;;;;18.78;57.30;101088.50;3566621;40;20133;-79
2021/07/02 01:38:15;;;;;;;9.93;3.85;;;;;;;18.76;56.63;101093.03;3565599;40;20065;-79
2021/07/02 01:40:45;;;;;;;10.70;4.07;;;;;;;18.66;57.18;101091.75;3567432;40;20085;-79
2021/07/02 01:43:13;;;;;;;7.65;3.30;;;;;;;18.55;56.94;101084.34;3581448;40;20053;-79
2021/07/02 01:45:42;;;;;;;;;;;;;;;18.52;53.51;101088.91;3568566;40;20064;-79
2021/07/02 01:48:12;;;;;;;6.90;2.72;;;;;;;18.41;56.58;101081.53;3571105;40;19972;-79
2021/07/02 01:50:39;;;;;;;6.38;2.40;;;;;;;18.27;56.77;101068.97;3563694;40;20068;-79
2021/07/02 01:53:15;;;;;;;8.07;3.20;;;;;;;18.16;57.50;101055.41;3560396;40;20041;-78
2021/07/02 01:55:44;;;;;;;7.18;3.13;;;;;;;18.15;57.37;101062.50;3559451;40;22121;-78
2021/07/02 01:58:36;;;;;;;7.28;2.90;;;;;;;18.15;55.21;101069.56;3566728;40;20041;-78
2021/07/02 02:01:21;;;;;;;9.35;3.13;;;;;;;18.07;57.10;101071.72;3562690;40;20076;-78
2021/07/02 02:03:54;;;;;;;7.30;3.05;;;;;;;18.03;56.94;101062.22;3561092;40;20075;-78
2021/07/02 02:06:38;;;;;;;8.00;3.38;;;;;;;17.97;56.31;101065.16;3566175;40;20096;-78
2021/07/02 02:09:06;;;;;;;10.52;3.90;;;;;;;17.89;58.67;101057.59;3575313;40;20060;-79
2021/07/02 02:11:36;;;;;;;7.72;3.00;;;;;;;17.85;58.56;101050.75;3571409;40;20053;-79
2021/07/02 02:14:09;;;;;;;7.13;2.83;;;;;;;17.82;58.74;101046.47;3562487;40;20200;-79
2021/07/02 02:16:41;;;;;;;9.13;3.78;;;;;;;17.67;59.68;101022.53;3576004;40;20055;-79
2021/07/02 02:19:12;;;;;;;9.10;3.78;;;;;;;17.68;59.48;101033.00;3561140;40;20060;-78
2021/07/02 02:21:40;;;;;;;10.07;3.88;;;;;;;17.60;59.58;101024.59;3561263;40;20096;-78
2021/07/02 02:24:09;;;;;;;7.78;2.97;;;;;;;17.72;59.49;101045.16;3556888;40;20045;-78
2021/07/02 02:26:39;;;;;;;8.13;3.50;;;;;;;17.63;59.17;101041.13;3547417;40;20070;-78
2021/07/02 02:29:07;;;;;;;8.25;3.63;;;;;;;17.59;60.18;101038.75;3562768;40;20390;-78
2021/07/02 02:31:34;;;;;;;10.55;4.18;;;;;;;17.56;59.93;101044.16;3560837;40;20099;-78
2021/07/02 02:34:07;;;;;;;10.65;4.43;;;;;;;17.41;60.33;101023.72;3551607;40;20385;-78
2021/07/02 02:36:36;;;;;;;8.57;3.80;;;;;;;17.38;59.98;101025.56;3561895;40;20059;-78
2021/07/02 02:39:06;;;;;;;9.70;3.50;;;;;;;17.41;60.01;101037.78;3572305;40;20077;-78
2021/07/02 02:41:35;;;;;;;8.85;3.67;;;;;;;17.32;59.48;101025.00;3576856;40;20050;-79
2021/07/02 02:44:29;;;;;;;11.85;4.25;;;;;;;17.31;56.99;101024.16;3566380;40;20331;-79
2021/07/02 02:47:00;;;;;;;9.55;3.33;;;;;;;17.23;58.95;101015.72;3575946;40;20369;-78
2021/07/02 02:49:31;;;;;;;8.52;3.42;;;;;;;17.20;58.88;101013.22;3569611;40;20103;-79
2021/07/02 02:52:02;;;;;;;8.13;3.35;;;;;;;17.17;59.89;101009.88;3571978;40;20045;-78
2021/07/02 02:54:30;;;;;;;8.80;3.40;;;;;;;17.13;60.32;101003.84;3573375;40;20407;-79
2021/07/02 02:57:04;;;;;;;7.13;2.60;;;;;;;17.07;59.87;100998.84;3579267;40;20130;-79
2021/07/02 02:59:38;;;;;;;8.45;3.30;;;;;;;17.03;58.84;101000.81;3553375;40;20381;-79
2021/07/02 03:02:10;;;;;;;6.35;2.30;;;;;;;16.97;59.99;100993.13;3558746;40;20501;-78
2021/07/02 03:04:37;;;;;;;;;;;;;;;17.00;56.51;100998.28;3558548;40;20055;-78
2021/07/02 03:07:06;;;;;;;7.15;2.67;;;;;;;16.93;60.45;100990.69;3582365;40;19944;-78
2021/07/02 03:09:36;;;;;;;9.35;3.05;;;;;;;16.91;59.70;100995.19;3574881;40;20431;-78
2021/07/02 03:12:05;;;;;;;6.63;2.80;;;;;;;16.89;60.27;100999.69;3571514;40;20640;-79
2021/07/02 03:14:36;;;;;;;7.32;2.70;;;;;;;16.84;60.03;100992.84;3576246;40;20649;-79
2021/07/02 03:17:05;;;;;;;8.82;3.25;;;;;;;16.82;60.33;100997.31;3562903;40;20069;-78
2021/07/02 03:19:39;;;;;;;6.53;2.65;;;;;;;16.78;59.75;100987.00;3563241;40;20053;-78
2021/07/02 03:22:09;;;;;;;6.68;2.28;;;;;;;16.78;59.23;101003.66;3552366;40;20460;-78
2021/07/02 03:24:41;;;;;;;6.50;2.70;;;;;;;16.74;59.77;101007.34;3568263;40;20401;-79
2021/07/02 03:27:09;;;;;;;8.40;3.58;;;;;;;16.64;60.92;100990.19;3571833;40;20422;-78
2021/07/02 03:29:42;;;;;;;7.00;3.03;;;;;;;16.63;59.62;100988.47;3549851;40;20053;-79
2021/07/02 03:32:11;;;;;;;5.63;2.40;;;;;;;16.64;59.64;100998.09;3562869;40;20084;-78
2021/07/02 03:35:09;;;;;;;5.55;2.13;;;;;;;16.60;58.00;100993.88;3560617;40;20065;-79
2021/07/02 03:37:40;;;;;;;3.75;1.52;;;;;;;16.57;59.70;100988.72;3560044;40;20088;-78
2021/07/02 03:40:09;;;;;;;5.90;2.22;;;;;;;16.53;59.74;100993.28;3569326;40;20066;-78
2021/07/02 03:42:39;;;;;;;6.57;2.28;;;;;;;16.47;60.56;100984.75;3566719;40;20140;-78
2021/07/02 03:45:10;;;;;;;8.27;3.35;;;;;;;16.51;60.99;100991.63;3552641;40;20131;-78
2021/07/02 03:47:37;;;;;;;5.68;2.38;;;;;;;16.43;60.32;100980.56;3585887;40;20081;-78
2021/07/02 03:50:06;;;;;;;5.93;2.65;;;;;;;16.31;60.40;100971.38;3568549;40;20065;-78
2021/07/02 03:52:36;;;;;;;7.75;3.10;;;;;;;16.42;60.76;100990.22;3579840;40;20104;-79
2021/07/02 03:55:10;;;;;;;7.80;2.50;;;;;;;16.41;60.49;100992.94;3569741;40;20830;-78
2021/07/02 03:57:39;;;;;;;6.32;2.58;;;;;;;16.33;60.32;100991.50;3575889;40;20081;-78
2021/07/02 04:00:08;;;;;;;5.32;1.95;;;;;;;16.30;59.84;100994.25;3577729;40;20087;-79
2021/07/02 04:02:42;;;;;;;9.75;3.10;;;;;;;16.19;61.37;100970.13;3564424;40;20044;-78
2021/07/02 04:05:10;;;;;;;8.48;3.40;;;;;;;16.23;61.28;100984.03;3561570;40;20110;-79
2021/07/02 04:07:41;;;;;;;6.45;2.92;;;;;;;16.28;61.26;101000.50;3556214;40;20077;-79
2021/07/02 04:10:09;;;;;;;7.68;3.33;;;;;;;16.30;61.37;101001.28;3570495;40;20061;-79
2021/07/02 04:12:36;;;;;;;7.45;2.70;;;;;;;16.26;61.32;100990.00;3580179;40;20054;-78
2021/07/02 04:15:16;;;;;;;7.63;3.15;;;;;;;16.29;59.88;100995.16;3552676;40;20061;-79
2021/07/02 04:17:48;;;;;;;8.10;3.40;;;;;;;16.26;60.65;100990.00;3562159;40;20053;-79
2021/07/02 04:20:17;;;;;;;8.32;3.35;;;;;;;16.25;61.56;100987.44;3579504;40;20049;-79
2021/07/02 04:22:44;;;;;;;6.57;2.33;;;;;;;16.23;61.29;100986.66;3569186;40;20450;-78
2021/07/02 04:25:20;;;;;;;7.30;2.90;;;;;;;16.19;60.06;100977.16;3581075;40;20049;-78
2021/07/02 04:27:49;;;;;;;10.07;3.40;;;;;;;16.14;61.95;100973.88;3558621;40;20099;-78
2021/07/02 04:30:16;;;;;;;8.38;2.92;;;;;;;16.08;62.15;100967.94;3572982;40;20101;-78
2021/07/02 04:32:43;;;;;;;7.32;2.90;;;;;;;16.01;62.10;100968.22;3574914;40;20381;-78
2021/07/02 04:35:14;;;;;;;7.28;2.63;;;;;;;16.13;61.43;100986.19;3578480;40;20057;-78
2021/07/02 04:37:42;;;;;;;9.10;3.50;;;;;;;16.01;62.52;100968.22;3563408;40;20049;-78
2021/07/02 04:40:13;;;;;;;9.35;3.45;;;;;;;16.18;61.95;100992.13;3580069;40;20080;-78
2021/07/02 04:42:40;;;;;;;9.23;3.55;;;;;;;16.15;63.16;100986.13;3580003;40;20377;-79
2021/07/02 04:45:08;;;;;;;8.57;3.28;;;;;;;16.07;62.62;100975.91;3579848;40;20065;-78
2021/07/02 04:47:35;;;;;;;8.55;3.38;;;;;;;16.11;62.42;100977.47;3575665;40;20041;-78
2021/07/02 04:50:06;;;;;;;8.90;3.40;;;;;;;16.19;62.60;100988.56;3571577;40;20065;-78
2021/07/02 04:52:58;;;;;;;7.75;3.00;;;;;;;16.22;60.15;100979.66;3571853;40;20048;-78
2021/07/02 04:55:25;;;;;;;10.10;4.13;;;;;;;16.11;63.54;100969.56;3562257;40;20446;-78
2021/07/02 04:57:52;;;;;;;9.55;3.78;;;;;;;16.07;63.09;100965.38;3566657;40;20092;-78
2021/07/02 05:00:31;;;;;;;9.88;3.90;;;;;;;16.21;61.22;100973.53;3572638;40;20072;-79
2021/07/02 05:03:00;;;;;;;9.20;3.65;;;;;;;16.17;63.59;100977.25;3566323;40;20455;-78
2021/07/02 05:05:28;;;;;;;8.48;3.47;;;;;;;16.19;62.70;100978.03;3580633;40;20071;-79
2021/07/02 05:07:54;;;;;;;;;;;;;;;16.22;58.61;100971.75;3580014;40;20142;-78
2021/07/02 05:10:30;;;;;;;8.00;3.03;;;;;;;16.18;61.27;100962.28;3579637;40;20023;-78
2021/07/02 05:12:57;;;;;;;9.02;3.38;;;;;;;16.15;63.46;100965.91;3558429;40;20720;-79
2021/07/02 05:15:30;;;;;;;9.77;3.80;;;;;;;16.18;62.29;100971.03;3576105;40;20089;-79
2021/07/02 05:17:57;;;;;;;9.45;3.85;;;;;;;16.13;63.41;100967.75;3576373;40;20061;-78
2021/07/02 05:20:26;;;;;;;9.70;3.42;;;;;;;16.11;63.26;100964.31;3565893;40;20062;-78
2021/07/02 05:22:53;;;;;;;13.05;4.43;;;;;;;16.07;63.82;100965.38;3560295;40;20045;-79
2021/07/02 05:25:21;;;;;;;12.35;4.82;;;;;;;16.07;63.68;100962.75;3568402;40;20093;-79
2021/07/02 05:27:52;;;;;;;11.13;3.85;;;;;;;16.07;63.30;100968.00;3561443;40;20087;-79
2021/07/02 05:30:19;;;;;;;8.02;2.97;;;;;;;15.97;64.33;100950.88;3555125;40;20607;-78
2021/07/02 05:32:48;;;;;;;12.40;4.75;;;;;;;16.10;64.23;100967.88;3567378;40;20054;-78
2021/07/02 05:35:17;;;;;;;11.93;4.43;;;;;;;16.09;64.04;100961.75;3581005;40;20914;-78
2021/07/02 05:37:47;;;;;;;10.02;3.60;;;;;;;16.10;63.87;100962.59;3586001;40;20049;-78
2021/07/02 05:40:16;;;;;;;10.07;4.05;;;;;;;16.13;64.48;100966.91;3565062;40;20796;-79
2021/07/02 05:42:44;;;;;;;9.43;3.55;;;;;;;16.02;63.91;100955.03;3572168;40;20041;-78
2021/07/02 05:45:37;;;;;;;;;;;;;;;16.18;60.06;100978.94;3578169;40;20726;-78
2021/07/02 05:48:08;;;;;;;8.68;3.70;;;;;;;16.17;64.11;100979.88;3570819;40;19993;-78
2021/07/02 05:50:37;;;;;;;9.18;4.00;;;;;;;16.18;64.18;100986.84;3574695;40;20143;-78
2021/07/02 05:53:06;;;;;;;9.77;3.72;;;;;;;16.22;64.62;100983.19;3554939;40;20737;-79
2021/07/02 05:55:33;;;;;;;9.40;4.00;;;;;;;16.25;64.51;100988.31;3575468;40;20045;-79
2021/07/02 05:58:01;;;;;;;;;;;;;;;16.31;60.17;100992.47;3582639;40;20072;-78
2021/07/02 06:00:29;;;;;;;11.88;3.85;;;;;;;16.31;63.96;101001.22;3580430;40;20290;-78
2021/07/02 06:02:55;;;;;;;10.93;4.18;;;;;;;16.31;64.77;100997.72;3578421;40;20061;-79
2021/07/02 06:05:25;;;;;;;9.85;3.92;;;;;;;16.33;64.43;100996.75;3567157;40;20454;-78
2021/07/02 06:07:55;;;;;;;9.85;3.60;;;;;;;16.32;64.45;100997.69;3553604;40;20678;-78
2021/07/02 06:10:24;;;;;;;9.82;4.05;;;;;;;16.32;64.80;101004.72;3578889;40;20429;-78
2021/07/02 06:12:52;;;;;;;12.10;3.80;;;;;;;16.35;64.78;101010.72;3554148;40;20108;-78
2021/07/02 06:15:20;;;;;;;;;;;;;;;16.40;59.94;101012.31;3552263;40;20439;-78
2021/07/02 06:17:50;;;;;;;8.93;3.25;;;;;;;16.28;64.04;101001.38;3566064;40;20024;-78
2021/07/02 06:20:22;;;;;;;12.57;4.70;;;;;;;16.34;64.26;101018.69;3563714;40;20048;-79
2021/07/02 06:22:49;;;;;;;9.27;3.30;;;;;;;16.24;63.83;100994.50;3574943;40;20128;-78
2021/07/02 06:25:42;;;;;;;;;;;;;;;16.41;60.07;101019.28;3559727;40;20444;-78
2021/07/02 06:28:14;;;;;;;8.57;3.60;;;;;;;16.38;63.67;101008.91;3563740;40;19941;-79
2021/07/02 06:30:42;;;;;;;9.82;3.97;;;;;;;16.39;64.01;101005.34;3561380;40;20090;-79
2021/07/02 06:33:10;;;;;;;10.30;3.72;;;;;;;16.38;64.47;101003.63;3547745;40;20495;-79
2021/07/02 06:35:39;;;;;;;13.45;3.88;;;;;;;16.40;64.26;101007.03;3567804;40;20041;-79
2021/07/02 06:38:06;;;;;;;9.32;3.60;;;;;;;16.42;64.61;101011.31;3566183;40;20084;-79
2021/07/02 06:40:34;;;;;;;10.13;4.10;;;;;;;16.43;64.12;101012.19;3557170;40;20111;-78
2021/07/02 06:43:02;;;;;;;6.88;2.90;;;;;;;16.51;64.93;101010.94;3565273;40;20077;-78
2021/07/02 06:45:29;;;;;;;8.18;2.97;;;;;;;16.51;63.89;100999.53;3566874;40;20107;-78
2021/07/02 06:47:59;;;;;;;9.60;4.07;;;;;;;16.67;64.81;101026.09;3568759;40;20414;-79
2021/07/02 06:50:30;;;;;;;7.55;2.78;;;;;;;16.74;63.79;101020.53;3561996;40;20066;-78
2021/07/02 06:52:59;;;;;;;8.07;3.15;;;;;;;16.80;63.37;101016.78;3547480;40;20049;-78
2021/07/02 06:55:35;;;;;;;8.82;3.40;;;;;;;16.95;63.37;101020.53;3576326;40;20767;-78
2021/07/02 06:58:04;;;;;;;7.85;3.03;;;;;;;16.98;63.65;101015.09;3582261;40;20111;-79
2021/07/02 07:00:31;;;;;;;7.68;3.53;;;;;;;17.08;63.53;101016.41;3576170;40;20076;-78
2021/07/02 07:02:59;;;;;;;6.05;2.55;;;;;;;17.14;62.96;101016.16;3577302;40;20477;-78
2021/07/02 07:05:28;;;;;;;;;;;;;;;17.27;60.55;101022.56;3576132;40;20057;-78
2021/07/02 07:07:57;;;;;;;7.45;2.90;;;;;;;17.29;62.41;101017.25;3581719;40;19961;-78
2021/07/02 07:10:30;;;;;;;7.07;3.00;;;;;;;17.35;61.75;101016.97;3553813;40;20050;-78
2021/07/02 07:12:58;;;;;;;6.32;2.63;;;;;;;17.37;62.44;101018.59;3572071;40;20065;-79
2021/07/02 07:15:26;;;;;;;;;;;;;;;17.52;60.32;101018.81;3561634;40;20057;-78
2021/07/02 07:17:54;;;;;;;8.32;2.85;;;;;;;17.50;62.63;101010.13;3569362;40;20037;-78
2021/07/02 07:20:50;;;;;;;10.13;3.97;;;;;;;17.64;60.85;101023.53;3569941;40;20045;-79
2021/07/02 07:23:27;;;;;;;7.18;2.72;;;;;;;17.67;61.36;101015.44;3573021;40;20069;-78
2021/07/02 07:25:54;;;;;;;6.05;2.75;;;;;;;17.64;62.17;101010.34;3566712;40;20076;-79
2021/07/02 07:28:21;;;;;;;;;;;;;;;17.80;59.50;101021.91;3562902;40;20076;-79
2021/07/02 07:30:49;;;;;;;9.53;2.90;;;;;;;17.77;62.29;101022.03;3578871;40;19948;-79
2021/07/02 07:33:18;;;;;;;9.40;3.97;;;;;;;17.84;62.96;101018.19;3578586;40;20257;-79
2021/07/02 07:35:48;;;;;;;6.70;2.60;;;;;;;17.88;63.01;101019.75;3557230;40;20555;-78
2021/07/02 07:38:19;;;;;;;7.97;3.33;;;;;;;18.01;62.36;101029.75;3570383;40;20532;-79
2021/07/02 07:40:50;;;;;;;7.85;2.92;;;;;;;18.06;61.98;101019.81;3566157;40;20122;-79
2021/07/02 07:43:24;;;;;;;7.53;3.30;;;;;;;18.09;61.76;101012.56;3576230;40;20554;-79
2021/07/02 07:46:20;;;;;;;9.40;3.88;;;;;;;18.26;60.84;101017.03;3575742;40;20072;-79
2021/07/02 07:48:47;;;;;;;7.50;3.10;;;;;;;18.29;62.11;101024.78;3567937;40;20666;-79
2021/07/02 07:54:12;;;;;;;7.47;2.60;;;;;;;18.52;60.21;101021.00;3556446;40;20069;-79
2021/07/02 07:56:39;;;;;;;8.13;3.40;;;;;;;18.54;61.31;101023.56;3564271;40;20063;-78
2021/07/02 07:59:41;;;;;;;7.85;3.08;;;;;;;18.70;60.07;101019.22;3564720;40;20056;-77
2021/07/02 08:02:10;;;;;;;8.18;3.47;;;;;;;18.73;60.53;101013.78;3572130;40;20059;-78
2021/07/02 08:04:41;;;;;;;6.97;3.05;;;;;;;18.81;60.35;101011.63;3573611;40;20059;-78
2021/07/02 08:07:10;;;;;;;9.25;3.80;;;;;;;18.82;60.42;101002.75;3572659;40;20083;-78
2021/07/02 08:09:38;;;;;;;8.27;3.75;;;;;;;18.92;60.42;101011.91;3577022;40;20491;-78
2021/07/02 08:12:05;;;;;;;6.43;3.00;;;;;;;18.94;60.53;101001.22;3588008;40;20061;-78
2021/07/02 08:14:32;;;;;;;10.20;4.30;;;;;;;19.06;60.04;101013.84;3573440;40;20111;-78
2021/07/02 08:16:59;;;;;;;7.43;3.30;;;;;;;19.07;60.25;101001.44;3574148;40;20096;-78
2021/07/02 08:19:27;;;;;;;8.53;3.70;;;;;;;19.16;60.36;101008.91;3576701;40;20871;-78
2021/07/02 08:21:57;;;;;;;7.38;3.22;;;;;;;19.17;59.75;100998.22;3558430;40;20049;-78
2021/07/02 08:24:25;;;;;;;6.93;3.15;;;;;;;19.29;59.84;101006.44;3559866;40;20174;-78
2021/07/02 08:26:57;;;;;;;7.45;2.97;;;;;;;19.33;59.95;101014.13;3573040;40;20068;-78
2021/07/02 08:29:26;;;;;;;8.07;3.47;;;;;;;19.41;59.94;101006.66;3577257;40;20065;-78
2021/07/02 08:31:56;;;;;;;8.05;3.53;;;;;;;19.51;59.70;101011.41;3550072;40;20393;-78
2021/07/02 08:34:25;;;;;;;8.88;3.15;;;;;;;19.58;59.47;101007.50;3567598;40;20308;-79
2021/07/02 08:36:53;;;;;;;6.22;2.70;;;;;;;19.65;59.71;101008.91;3570539;40;20116;-78
2021/07/02 08:39:25;;;;;;;9.40;4.07;;;;;;;19.73;59.29;101006.69;3566781;40;20065;-79
2021/07/02 08:41:52;;;;;;;9.35;3.53;;;;;;;19.82;59.21;101003.53;3553932;40;20072;-79
2021/07/02 08:44:19;;;;;;;6.03;2.75;;;;;;;19.89;58.64;100996.91;3573608;40;20045;-79
2021/07/02 08:46:46;;;;;;;8.47;3.63;;;;;;;19.99;58.35;100996.41;3570523;40;20052;-78
2021/07/02 08:49:36;;;;;;;7.18;3.08;;;;;;;20.13;58.45;100992.03;3556682;40;20061;-79
2021/07/02 08:52:03;;;;;;;11.52;4.38;;;;;;;20.24;58.79;100980.78;3563002;40;20056;-79
2021/07/02 08:54:35;;;;;;;8.48;3.60;;;;;;;20.40;58.65;100976.28;3563266;40;20154;-78
2021/07/02 08:57:02;;;;;;;10.18;4.18;;;;;;;20.51;57.67;100977.47;3568418;40;20053;-79
2021/07/02 08:59:31;;;;;;;10.40;4.22;;;;;;;20.67;57.19;100972.94;3563098;40;20041;-79
2021/07/02 09:02:00;;;;;;;10.38;4.55;;;;;;;20.78;57.23;100954.56;3563236;40;20089;-79
2021/07/02 09:04:34;;;;;;;9.57;4.57;;;;;;;20.92;57.00;100961.69;3568825;40;20513;-78
2021/07/02 09:07:07;;;;;;;10.63;4.70;;;;;;;21.11;55.83;100972.03;3576752;40;20362;-79
2021/07/02 09:09:50;;;;;;;9.02;4.00;;;;;;;21.30;56.35;100971.72;3550958;40;20472;-78
2021/07/02 09:12:20;;;;;;;10.25;4.40;;;;;;;21.40;56.35;100965.75;3549290;40;20158;-79
2021/07/02 09:15:09;;;;;;;9.25;4.07;;;;;;;21.49;55.87;100943.03;3569582;40;20381;-79
2021/07/02 09:17:45;;;;;;;10.18;3.70;;;;;;;21.73;55.61;100959.22;3567317;40;20069;-78
2021/07/02 09:20:23;;;;;;;10.65;4.70;;;;;;;21.83;55.42;100952.34;3557839;40;20061;-78
2021/07/02 09:22:54;;;;;;;10.57;5.15;;;;;;;22.00;55.10;100946.78;3535923;40;20073;-79
2021/07/02 09:25:31;;;;;;;10.77;5.05;;;;;;;22.22;54.86;100945.38;3554490;40;20517;-79
2021/07/02 09:28:07;;;;;;;11.32;4.82;;;;;;;22.41;54.50;100945.81;3562317;40;20101;-80
2021/07/02 09:30:49;;;;;;;12.20;5.90;;;;;;;22.60;54.42;100944.53;3560871;40;20053;-79
2021/07/02 09:33:22;;;;;;;11.45;5.82;;;;;;;22.82;53.91;100942.09;3557133;40;20064;-79
2021/07/02 09:35:59;;;;;;;13.90;6.78;;;;;;;23.00;53.51;100948.81;3537218;40;20078;-79
2021/07/02 09:38:40;;;;;;;9.73;5.10;;;;;;;23.18;53.41;100943.16;3559954;40;20082;-79
2021/07/02 09:41:13;;;;;;;12.13;6.03;;;;;;;23.31;52.12;100944.81;3557525;40;20133;-79
2021/07/02 09:43:40;;;;;;;11.05;5.30;;;;;;;23.35;51.73;100942.78;3552010;40;20056;-79
2021/07/02 09:46:08;;;;;;;15.70;6.20;;;;;;;23.44;51.66;100942.13;3552914;40;20154;-79
2021/07/02 09:48:44;;;;;;;15.02;6.65;;;;;;;23.62;51.84;100950.59;3565024;40;20107;-79
2021/07/02 09:51:13;;;;;;;12.25;5.93;;;;;;;23.66;51.41;100945.91;3552671;40;20049;-78
2021/07/02 09:53:43;;;;;;;10.85;5.40;;;;;;;23.74;51.28;100960.38;3570513;40;20072;-79
2021/07/02 09:56:20;;;;;;;11.75;5.70;;;;;;;23.83;50.88;100958.84;3562037;40;20068;-79
2021/07/02 09:58:55;;;;;;;12.60;6.07;;;;;;;23.88;50.66;100954.03;3553659;40;20499;-79
2021/07/02 10:01:25;;;;;;;10.02;5.13;;;;;;;23.91;49.86;100964.47;3552380;40;20115;-79
2021/07/02 10:04:05;;;;;;;9.82;4.43;;;;;;;23.83;50.39;100948.19;3564122;40;20135;-80
2021/07/02 10:06:32;;;;;;;13.48;6.65;;;;;;;23.86;49.56;100963.94;3564454;40;20066;-79
2021/07/02 10:09:04;;;;;;;14.48;7.43;;;;;;;23.92;49.73;100958.16;3557493;40;21123;-80
2021/07/02 10:11:32;;;;;;;10.43;5.45;;;;;;;23.85;49.71;100948.91;3556987;40;20323;-80
2021/07/02 10:14:03;;;;;;;12.10;6.05;;;;;;;23.96;49.14;100964.97;3561523;40;20052;-80
2021/07/02 10:16:31;;;;;;;10.35;5.03;;;;;;;23.88;48.66;100954.03;3555274;40;20066;-79
2021/07/02 10:19:03;;;;;;;14.35;6.60;;;;;;;23.87;49.19;100949.63;3575202;40;20046;-79
2021/07/02 10:21:39;;;;;;;11.10;5.70;;;;;;;23.82;48.80;100957.13;3554533;40;20068;-79
2021/07/02 10:24:09;;;;;;;10.43;5.15;;;;;;;23.79;49.27;100958.22;3554775;40;20117;-79
2021/07/02 10:26:37;;;;;;;10.73;5.13;;;;;;;23.70;49.24;100958.06;3566029;40;20090;-79
2021/07/02 10:29:07;;;;;;;10.55;4.70;;;;;;;23.68;49.85;100960.00;3554831;40;20050;-79
2021/07/02 10:31:35;;;;;;;9.43;4.82;;;;;;;23.68;49.94;100963.50;3551488;40;20091;-79
2021/07/02 10:34:06;;;;;;;12.60;5.97;;;;;;;23.69;49.64;100956.34;3564970;40;20066;-79
2021/07/02 10:36:37;;;;;;;11.82;5.88;;;;;;;23.71;49.39;100957.09;3577890;40;20079;-80
2021/07/02 10:39:04;;;;;;;11.43;5.47;;;;;;;23.69;49.32;100962.53;3565185;40;20451;-79
2021/07/02 10:41:32;;;;;;;8.32;4.35;;;;;;;23.68;49.32;100965.31;3573160;40;20049;-79
2021/07/02 10:44:05;;;;;;;7.93;4.15;;;;;;;23.69;49.14;100972.34;3564924;40;20048;-79
2021/07/02 10:46:37;;;;;;;8.70;4.03;;;;;;;23.62;49.17;100968.38;3563865;40;20063;-79
2021/07/02 10:49:10;;;;;;;16.20;6.65;;;;;;;23.60;49.39;100967.66;3569949;40;20091;-79
2021/07/02 10:51:47;;;;;;;11.88;4.88;;;;;;;23.61;49.54;100964.03;3553918;40;20050;-79
2021/07/02 10:54:23;;;;;;;8.93;3.70;;;;;;;23.60;49.86;100970.31;3563108;40;20080;-79
2021/07/02 10:56:49;;;;;;;11.95;5.57;;;;;;;23.52;50.16;100968.22;3551199;40;20053;-79
2021/07/02 10:59:17;;;;;;;10.23;4.35;;;;;;;23.48;50.15;100953.41;3560385;40;20704;-79
2021/07/02 11:02:07;;;;;;;9.65;4.80;;;;;;;23.59;49.54;100965.97;3564010;40;21066;-79
2021/07/02 11:04:43;;;;;;;11.55;6.05;;;;;;;23.56;49.45;100962.53;3552436;40;20061;-78
2021/07/02 11:07:12;;;;;;;10.77;5.30;;;;;;;23.53;49.96;100962.78;3575835;40;20071;-79
2021/07/02 11:09:59;;;;;;;10.65;4.55;;;;;;;23.60;49.93;100962.31;3576687;40;20133;-79
2021/07/02 11:12:44;;;;;;;10.18;5.18;;;;;;;23.62;49.78;100960.38;3561697;40;20089;-79
2021/07/02 11:15:18;;;;;;;11.02;4.68;;;;;;;23.62;49.66;100960.38;3572052;40;20086;-79
2021/07/02 11:18:09;;;;;;;12.52;5.80;;;;;;;23.67;49.60;100968.94;3573295;40;20092;-79
2021/07/02 11:20:36;;;;;;;10.95;5.28;;;;;;;23.58;49.06;100958.94;3556436;40;20061;-79
2021/07/02 11:23:18;;;;;;;14.73;6.65;;;;;;;23.67;49.71;100967.16;3563738;40;20147;-79
2021/07/02 11:26:00;;;;;;;26.92;15.10;;;;;;;23.63;49.52;100962.13;3554149;40;20063;-79
2021/07/02 11:28:33;;;;;;;12.70;5.90;;;;;;;23.62;49.30;100966.59;3555802;40;20437;-79
2021/07/02 11:31:04;;;;;;;12.63;6.72;;;;;;;23.53;49.48;100952.13;3565515;40;20068;-79
2021/07/02 11:33:34;;;;;;;12.27;5.93;;;;;;;23.50;49.65;100951.47;3580844;40;20052;-79
2021/07/02 11:36:01;;;;;;;15.00;6.45;;;;;;;23.52;49.68;100958.41;3553695;40;20053;-79
2021/07/02 11:38:29;;;;;;;14.55;6.50;;;;;;;23.53;49.65;100952.13;3553566;40;20074;-79
2021/07/02 11:41:04;;;;;;;12.70;5.60;;;;;;;23.61;50.33;100953.34;3565016;40;20050;-79
2021/07/02 11:43:34;;;;;;;19.73;7.30;;;;;;;23.61;50.88;100953.34;3550107;40;20061;-79
2021/07/02 11:46:12;;;;;;;12.25;5.82;;;;;;;23.62;50.44;100955.94;3562272;40;20049;-79